sensor_id;sensor_type;location;lat;lon;timestamp;P1;durP1;ratioP1;P2;durP2;ratioP2
22849;SDS011;11591;44.792;10.358;2023-06-10T04:44:11;10.45;;;5.28;;
22849;SDS011;11591;44.792;10.358;2023-06-10T04:46:37;9.80;;;5.18;;
22849;SDS011;11591;44.792;10.358;2023-06-10T04:49:03;13.73;;;6.00;;
22849;SDS011;11591;44.792;10.358;2023-06-10T04:51:30;11.05;;;6.18;;
22849;SDS011;11591;44.792;10.358;2023-06-10T04:53:57;11.25;;;5.72;;
22849;SDS011;11591;44.792;10.358;2023-06-10T04:56:23;10.45;;;5.25;;
22849;SDS011;11591;44.792;10.358;2023-06-10T04:58:50;11.43;;;4.70;;
22849;SDS011;11591;44.792;10.358;2023-06-10T05:01:16;10.88;;;5.00;;
22849;SDS011;11591;44.792;10.358;2023-06-10T05:03:41;11.65;;;5.97;;
22849;SDS011;11591;44.792;10.358;2023-06-10T05:06:07;24.40;;;6.03;;
22849;SDS011;11591;44.792;10.358;2023-06-10T05:08:33;9.88;;;5.03;;
22849;SDS011;11591;44.792;10.358;2023-06-10T05:10:59;11.65;;;5.82;;
22849;SDS011;11591;44.792;10.358;2023-06-10T05:13:24;10.63;;;6.03;;
22849;SDS011;11591;44.792;10.358;2023-06-10T05:15:50;10.65;;;5.55;;
22849;SDS011;11591;44.792;10.358;2023-06-10T05:18:16;13.63;;;5.75;;
22849;SDS011;11591;44.792;10.358;2023-06-10T05:20:42;11.20;;;5.72;;
22849;SDS011;11591;44.792;10.358;2023-06-10T05:23:07;9.93;;;5.32;;
22849;SDS011;11591;44.792;10.358;2023-06-10T05:25:33;11.52;;;5.45;;
22849;SDS011;11591;44.792;10.358;2023-06-10T05:28:00;13.48;;;5.75;;
22849;SDS011;11591;44.792;10.358;2023-06-10T05:30:26;11.65;;;5.60;;
22849;SDS011;11591;44.792;10.358;2023-06-10T05:32:51;10.18;;;5.80;;
22849;SDS011;11591;44.792;10.358;2023-06-10T05:35:18;10.18;;;5.25;;
22849;SDS011;11591;44.792;10.358;2023-06-10T05:37:44;9.73;;;5.80;;
22849;SDS011;11591;44.792;10.358;2023-06-10T05:40:10;11.52;;;5.60;;
22849;SDS011;11591;44.792;10.358;2023-06-10T05:42:36;8.50;;;5.35;;
22849;SDS011;11591;44.792;10.358;2023-06-10T05:45:02;10.02;;;5.13;;
22849;SDS011;11591;44.792;10.358;2023-06-10T05:47:28;9.63;;;5.00;;
22849;SDS011;11591;44.792;10.358;2023-06-10T05:49:54;8.75;;;5.30;;
22849;SDS011;11591;44.792;10.358;2023-06-10T05:52:20;8.93;;;4.40;;
22849;SDS011;11591;44.792;10.358;2023-06-10T05:54:46;8.82;;;4.45;;
22849;SDS011;11591;44.792;10.358;2023-06-10T05:57:12;8.43;;;4.45;;
22849;SDS011;11591;44.792;10.358;2023-06-10T05:59:37;10.52;;;4.45;;
22849;SDS011;11591;44.792;10.358;2023-06-10T06:02:03;7.10;;;4.63;;
22849;SDS011;11591;44.792;10.358;2023-06-10T06:04:30;10.10;;;4.78;;
22849;SDS011;11591;44.792;10.358;2023-06-10T06:06:57;9.23;;;5.38;;
22849;SDS011;11591;44.792;10.358;2023-06-10T06:09:23;10.27;;;5.05;;
22849;SDS011;11591;44.792;10.358;2023-06-10T06:11:49;7.07;;;4.40;;
22849;SDS011;11591;44.792;10.358;2023-06-10T06:14:14;10.10;;;4.65;;
22849;SDS011;11591;44.792;10.358;2023-06-10T06:16:40;7.35;;;3.67;;
22849;SDS011;11591;44.792;10.358;2023-06-10T06:19:06;8.02;;;3.88;;
22849;SDS011;11591;44.792;10.358;2023-06-10T06:21:31;7.28;;;3.88;;
22849;SDS011;11591;44.792;10.358;2023-06-10T06:23:58;8.38;;;3.50;;
22849;SDS011;11591;44.792;10.358;2023-06-10T06:26:24;5.38;;;3.90;;
22849;SDS011;11591;44.792;10.358;2023-06-10T06:28:50;8.30;;;4.45;;
22849;SDS011;11591;44.792;10.358;2023-06-10T06:31:17;10.32;;;4.82;;
22849;SDS011;11591;44.792;10.358;2023-06-10T06:33:43;4.55;;;2.80;;
22849;SDS011;11591;44.792;10.358;2023-06-10T06:36:08;7.75;;;2.90;;
22849;SDS011;11591;44.792;10.358;2023-06-10T06:38:34;7.30;;;2.90;;
22849;SDS011;11591;44.792;10.358;2023-06-10T06:41:00;6.72;;;2.50;;
22849;SDS011;11591;44.792;10.358;2023-06-10T06:43:31;6.88;;;3.50;;
22849;SDS011;11591;44.792;10.358;2023-06-10T06:46:17;5.45;;;2.88;;
22849;SDS011;11591;44.792;10.358;2023-06-10T06:48:44;4.70;;;2.10;;
22849;SDS011;11591;44.792;10.358;2023-06-10T06:51:09;5.32;;;2.38;;
22849;SDS011;11591;44.792;10.358;2023-06-10T06:53:35;4.60;;;2.25;;
22849;SDS011;11591;44.792;10.358;2023-06-10T06:56:02;4.10;;;2.17;;
22849;SDS011;11591;44.792;10.358;2023-06-10T06:58:28;4.95;;;2.53;;
22849;SDS011;11591;44.792;10.358;2023-06-10T07:00:53;4.20;;;2.28;;
22849;SDS011;11591;44.792;10.358;2023-06-10T07:03:21;4.45;;;2.85;;
22849;SDS011;11591;44.792;10.358;2023-06-10T07:05:46;6.22;;;2.60;;
22849;SDS011;11591;44.792;10.358;2023-06-10T07:08:12;7.32;;;3.20;;
22849;SDS011;11591;44.792;10.358;2023-06-10T07:10:38;12.32;;;3.17;;
22849;SDS011;11591;44.792;10.358;2023-06-10T07:13:04;7.78;;;3.25;;
22849;SDS011;11591;44.792;10.358;2023-06-10T07:15:30;5.25;;;3.22;;
22849;SDS011;11591;44.792;10.358;2023-06-10T07:17:55;9.77;;;3.65;;
22849;SDS011;11591;44.792;10.358;2023-06-10T07:20:21;9.90;;;3.65;;
22849;SDS011;11591;44.792;10.358;2023-06-10T07:22:47;8.48;;;3.38;;
22849;SDS011;11591;44.792;10.358;2023-06-10T07:25:13;6.85;;;3.33;;
22849;SDS011;11591;44.792;10.358;2023-06-10T07:27:38;9.02;;;3.05;;
22849;SDS011;11591;44.792;10.358;2023-06-10T07:30:05;5.18;;;2.55;;
22849;SDS011;11591;44.792;10.358;2023-06-10T07:32:34;4.82;;;2.15;;
22849;SDS011;11591;44.792;10.358;2023-06-10T07:35:00;5.55;;;2.67;;
22849;SDS011;11591;44.792;10.358;2023-06-10T07:37:26;5.72;;;2.10;;
22849;SDS011;11591;44.792;10.358;2023-06-10T07:39:52;4.68;;;2.40;;
22849;SDS011;11591;44.792;10.358;2023-06-10T07:42:17;4.88;;;2.20;;
22849;SDS011;11591;44.792;10.358;2023-06-10T07:44:43;6.43;;;2.58;;
22849;SDS011;11591;44.792;10.358;2023-06-10T07:47:09;8.40;;;3.60;;
22849;SDS011;11591;44.792;10.358;2023-06-10T07:49:35;8.00;;;3.45;;
22849;SDS011;11591;44.792;10.358;2023-06-10T07:52:01;7.63;;;3.53;;
22849;SDS011;11591;44.792;10.358;2023-06-10T07:54:27;9.07;;;3.58;;
22849;SDS011;11591;44.792;10.358;2023-06-10T07:56:52;6.72;;;3.60;;
22849;SDS011;11591;44.792;10.358;2023-06-10T07:59:18;10.15;;;3.70;;
22849;SDS011;11591;44.792;10.358;2023-06-10T08:01:44;8.25;;;2.80;;
22849;SDS011;11591;44.792;10.358;2023-06-10T08:04:10;7.90;;;3.35;;
22849;SDS011;11591;44.792;10.358;2023-06-10T08:06:36;4.30;;;2.15;;
22849;SDS011;11591;44.792;10.358;2023-06-10T08:09:03;6.40;;;2.20;;
22849;SDS011;11591;44.792;10.358;2023-06-10T08:11:29;7.93;;;2.50;;
22849;SDS011;11591;44.792;10.358;2023-06-10T08:13:55;5.03;;;2.53;;
22849;SDS011;11591;44.792;10.358;2023-06-10T08:16:21;7.18;;;2.90;;
22849;SDS011;11591;44.792;10.358;2023-06-10T08:18:46;7.45;;;2.83;;
22849;SDS011;11591;44.792;10.358;2023-06-10T08:21:12;7.88;;;2.85;;
22849;SDS011;11591;44.792;10.358;2023-06-10T08:23:38;6.78;;;2.80;;
22849;SDS011;11591;44.792;10.358;2023-06-10T08:26:04;7.18;;;3.08;;
22849;SDS011;11591;44.792;10.358;2023-06-10T08:28:30;9.68;;;3.88;;
22849;SDS011;11591;44.792;10.358;2023-06-10T08:30:55;9.82;;;3.63;;
22849;SDS011;11591;44.792;10.358;2023-06-10T08:33:21;7.25;;;3.45;;
22849;SDS011;11591;44.792;10.358;2023-06-10T08:35:47;7.53;;;3.75;;
22849;SDS011;11591;44.792;10.358;2023-06-10T08:38:13;6.13;;;3.90;;
22849;SDS011;11591;44.792;10.358;2023-06-10T08:40:39;8.63;;;3.83;;
22849;SDS011;11591;44.792;10.358;2023-06-10T08:43:08;7.53;;;3.20;;
22849;SDS011;11591;44.792;10.358;2023-06-10T08:45:42;7.32;;;4.10;;
22849;SDS011;11591;44.792;10.358;2023-06-10T08:48:11;8.52;;;4.05;;
22849;SDS011;11591;44.792;10.358;2023-06-10T08:50:39;10.63;;;4.85;;
22849;SDS011;11591;44.792;10.358;2023-06-10T08:53:06;8.77;;;4.38;;
22849;SDS011;11591;44.792;10.358;2023-06-10T08:55:35;10.88;;;4.38;;
22849;SDS011;11591;44.792;10.358;2023-06-10T08:58:03;11.95;;;4.18;;
22849;SDS011;11591;44.792;10.358;2023-06-10T09:00:30;5.93;;;3.10;;
22849;SDS011;11591;44.792;10.358;2023-06-10T09:02:57;5.93;;;3.63;;
22849;SDS011;11591;44.792;10.358;2023-06-10T09:05:23;9.02;;;3.40;;
22849;SDS011;11591;44.792;10.358;2023-06-10T09:07:50;7.18;;;3.55;;
22849;SDS011;11591;44.792;10.358;2023-06-10T09:10:17;10.20;;;3.70;;
22849;SDS011;11591;44.792;10.358;2023-06-10T09:12:43;7.60;;;4.15;;
22849;SDS011;11591;44.792;10.358;2023-06-10T09:15:09;7.43;;;3.95;;
22849;SDS011;11591;44.792;10.358;2023-06-10T09:17:37;9.43;;;4.00;;
22849;SDS011;11591;44.792;10.358;2023-06-10T09:20:06;9.52;;;3.92;;
22849;SDS011;11591;44.792;10.358;2023-06-10T09:22:33;13.55;;;4.22;;
22849;SDS011;11591;44.792;10.358;2023-06-10T09:25:34;8.27;;;4.03;;
22849;SDS011;11591;44.792;10.358;2023-06-10T09:28:01;6.07;;;4.00;;
22849;SDS011;11591;44.792;10.358;2023-06-10T09:30:34;15.80;;;4.18;;
22849;SDS011;11591;44.792;10.358;2023-06-10T09:33:01;7.25;;;4.32;;
22849;SDS011;11591;44.792;10.358;2023-06-10T09:35:34;11.48;;;4.43;;
22849;SDS011;11591;44.792;10.358;2023-06-10T09:38:00;8.18;;;4.30;;
22849;SDS011;11591;44.792;10.358;2023-06-10T09:40:27;8.55;;;3.97;;
22849;SDS011;11591;44.792;10.358;2023-06-10T09:42:58;9.65;;;4.15;;
22849;SDS011;11591;44.792;10.358;2023-06-10T09:45:31;11.07;;;4.20;;
22849;SDS011;11591;44.792;10.358;2023-06-10T09:47:57;7.55;;;3.92;;
22849;SDS011;11591;44.792;10.358;2023-06-10T09:50:23;7.57;;;4.47;;
22849;SDS011;11591;44.792;10.358;2023-06-10T09:52:50;6.63;;;3.80;;
22849;SDS011;11591;44.792;10.358;2023-06-10T09:55:16;8.18;;;4.43;;
22849;SDS011;11591;44.792;10.358;2023-06-10T09:57:42;7.60;;;3.95;;
22849;SDS011;11591;44.792;10.358;2023-06-10T10:00:13;8.43;;;4.28;;
22849;SDS011;11591;44.792;10.358;2023-06-10T10:02:49;8.32;;;4.07;;
22849;SDS011;11591;44.792;10.358;2023-06-10T10:05:16;7.68;;;4.25;;
22849;SDS011;11591;44.792;10.358;2023-06-10T10:07:43;7.25;;;3.97;;
22849;SDS011;11591;44.792;10.358;2023-06-10T10:10:10;7.78;;;3.70;;
22849;SDS011;11591;44.792;10.358;2023-06-10T10:12:38;11.25;;;3.92;;
22849;SDS011;11591;44.792;10.358;2023-06-10T10:15:08;8.98;;;4.38;;
22849;SDS011;11591;44.792;10.358;2023-06-10T10:17:37;10.20;;;4.60;;
22849;SDS011;11591;44.792;10.358;2023-06-10T10:20:12;7.90;;;4.47;;
22849;SDS011;11591;44.792;10.358;2023-06-10T10:22:40;9.23;;;4.97;;
22849;SDS011;11591;44.792;10.358;2023-06-10T10:25:10;9.60;;;4.70;;
22849;SDS011;11591;44.792;10.358;2023-06-10T10:27:51;8.85;;;4.72;;
22849;SDS011;11591;44.792;10.358;2023-06-10T10:30:22;8.20;;;4.47;;
22849;SDS011;11591;44.792;10.358;2023-06-10T10:32:57;10.70;;;5.15;;
22849;SDS011;11591;44.792;10.358;2023-06-10T10:35:26;8.45;;;4.57;;
22849;SDS011;11591;44.792;10.358;2023-06-10T10:37:52;7.53;;;4.93;;
22849;SDS011;11591;44.792;10.358;2023-06-10T10:40:20;10.23;;;5.22;;
22849;SDS011;11591;44.792;10.358;2023-06-10T10:42:50;9.05;;;5.00;;
22849;SDS011;11591;44.792;10.358;2023-06-10T10:45:17;8.95;;;5.32;;
22849;SDS011;11591;44.792;10.358;2023-06-10T10:47:44;11.63;;;6.10;;
22849;SDS011;11591;44.792;10.358;2023-06-10T10:50:15;11.13;;;6.22;;
22849;SDS011;11591;44.792;10.358;2023-06-10T10:52:52;11.40;;;5.53;;
22849;SDS011;11591;44.792;10.358;2023-06-10T10:55:26;9.20;;;5.70;;
22849;SDS011;11591;44.792;10.358;2023-06-10T11:00:32;11.70;;;6.07;;
22849;SDS011;11591;44.792;10.358;2023-06-10T11:02:58;9.85;;;5.38;;
22849;SDS011;11591;44.792;10.358;2023-06-10T11:08:09;11.07;;;5.45;;
22849;SDS011;11591;44.792;10.358;2023-06-10T11:10:36;12.43;;;6.20;;
22849;SDS011;11591;44.792;10.358;2023-06-10T11:13:12;11.10;;;5.60;;
22849;SDS011;11591;44.792;10.358;2023-06-10T11:15:42;15.73;;;6.20;;
22849;SDS011;11591;44.792;10.358;2023-06-10T11:18:30;14.68;;;6.15;;
22849;SDS011;11591;44.792;10.358;2023-06-10T11:21:04;11.57;;;5.95;;
22849;SDS011;11591;44.792;10.358;2023-06-10T11:26:09;9.48;;;6.03;;
22849;SDS011;11591;44.792;10.358;2023-06-10T11:28:36;11.40;;;6.95;;
22849;SDS011;11591;44.792;10.358;2023-06-10T11:31:02;13.55;;;6.22;;
22849;SDS011;11591;44.792;10.358;2023-06-10T11:33:32;15.80;;;7.03;;
22849;SDS011;11591;44.792;10.358;2023-06-10T11:35:58;13.95;;;5.80;;
22849;SDS011;11591;44.792;10.358;2023-06-10T11:38:24;10.27;;;6.72;;
22849;SDS011;11591;44.792;10.358;2023-06-10T11:40:51;15.57;;;6.63;;
22849;SDS011;11591;44.792;10.358;2023-06-10T11:43:17;13.60;;;6.47;;
22849;SDS011;11591;44.792;10.358;2023-06-10T11:45:44;11.63;;;7.68;;
22849;SDS011;11591;44.792;10.358;2023-06-10T11:48:10;14.13;;;6.47;;
22849;SDS011;11591;44.792;10.358;2023-06-10T11:50:37;10.85;;;6.63;;
22849;SDS011;11591;44.792;10.358;2023-06-10T11:53:03;12.68;;;6.25;;
22849;SDS011;11591;44.792;10.358;2023-06-10T11:58:20;11.70;;;6.90;;
22849;SDS011;11591;44.792;10.358;2023-06-10T12:00:50;11.98;;;7.13;;
22849;SDS011;11591;44.792;10.358;2023-06-10T12:03:24;11.80;;;6.15;;
22849;SDS011;11591;44.792;10.358;2023-06-10T12:06:03;12.27;;;7.47;;
22849;SDS011;11591;44.792;10.358;2023-06-10T12:08:29;17.33;;;7.63;;
22849;SDS011;11591;44.792;10.358;2023-06-10T12:10:56;14.30;;;7.10;;
22849;SDS011;11591;44.792;10.358;2023-06-10T12:13:23;14.35;;;7.13;;
22849;SDS011;11591;44.792;10.358;2023-06-10T12:15:50;11.40;;;7.20;;
22849;SDS011;11591;44.792;10.358;2023-06-10T12:20:43;11.48;;;7.05;;
22849;SDS011;11591;44.792;10.358;2023-06-10T12:23:09;18.30;;;7.07;;
22849;SDS011;11591;44.792;10.358;2023-06-10T12:25:35;17.15;;;7.75;;
22849;SDS011;11591;44.792;10.358;2023-06-10T12:28:05;13.85;;;7.47;;
22849;SDS011;11591;44.792;10.358;2023-06-10T12:30:31;13.02;;;7.15;;
22849;SDS011;11591;44.792;10.358;2023-06-10T12:32:57;11.15;;;5.65;;
22849;SDS011;11591;44.792;10.358;2023-06-10T12:35:24;11.85;;;6.63;;
22849;SDS011;11591;44.792;10.358;2023-06-10T12:38:01;7.97;;;5.07;;
22849;SDS011;11591;44.792;10.358;2023-06-10T12:40:30;8.15;;;5.10;;
22849;SDS011;11591;44.792;10.358;2023-06-10T12:42:58;7.40;;;5.10;;
22849;SDS011;11591;44.792;10.358;2023-06-10T12:45:31;8.35;;;5.15;;
22849;SDS011;11591;44.792;10.358;2023-06-10T12:50:37;12.90;;;4.63;;
22849;SDS011;11591;44.792;10.358;2023-06-10T12:53:05;8.38;;;4.30;;
22849;SDS011;11591;44.792;10.358;2023-06-10T12:55:32;6.90;;;4.30;;
22849;SDS011;11591;44.792;10.358;2023-06-10T12:57:58;10.18;;;4.50;;
22849;SDS011;11591;44.792;10.358;2023-06-10T13:00:25;8.20;;;3.85;;
22849;SDS011;11591;44.792;10.358;2023-06-10T13:02:53;12.18;;;4.40;;
22849;SDS011;11591;44.792;10.358;2023-06-10T13:05:19;10.77;;;5.30;;
22849;SDS011;11591;44.792;10.358;2023-06-10T13:07:45;7.20;;;4.55;;
22849;SDS011;11591;44.792;10.358;2023-06-10T13:10:12;12.25;;;4.82;;
22849;SDS011;11591;44.792;10.358;2023-06-10T13:12:39;8.38;;;4.22;;
22849;SDS011;11591;44.792;10.358;2023-06-10T13:15:05;7.10;;;4.07;;
22849;SDS011;11591;44.792;10.358;2023-06-10T13:17:31;10.40;;;4.20;;
22849;SDS011;11591;44.792;10.358;2023-06-10T13:19:59;7.45;;;4.05;;
22849;SDS011;11591;44.792;10.358;2023-06-10T13:22:25;11.75;;;4.68;;
22849;SDS011;11591;44.792;10.358;2023-06-10T13:24:52;9.43;;;4.60;;
22849;SDS011;11591;44.792;10.358;2023-06-10T13:27:19;9.68;;;4.53;;
22849;SDS011;11591;44.792;10.358;2023-06-10T13:29:45;7.22;;;4.35;;
22849;SDS011;11591;44.792;10.358;2023-06-10T13:32:10;6.03;;;4.28;;
22849;SDS011;11591;44.792;10.358;2023-06-10T13:34:36;6.35;;;4.05;;
22849;SDS011;11591;44.792;10.358;2023-06-10T13:37:02;13.02;;;4.97;;
22849;SDS011;11591;44.792;10.358;2023-06-10T13:39:29;7.75;;;4.70;;
22849;SDS011;11591;44.792;10.358;2023-06-10T13:41:55;7.68;;;4.38;;
22849;SDS011;11591;44.792;10.358;2023-06-10T13:44:21;6.97;;;3.65;;
22849;SDS011;11591;44.792;10.358;2023-06-10T13:46:47;9.43;;;4.10;;
22849;SDS011;11591;44.792;10.358;2023-06-10T13:49:12;8.30;;;4.30;;
22849;SDS011;11591;44.792;10.358;2023-06-10T13:51:38;8.02;;;4.25;;
22849;SDS011;11591;44.792;10.358;2023-06-10T13:54:04;11.88;;;4.25;;
22849;SDS011;11591;44.792;10.358;2023-06-10T13:56:30;8.93;;;4.05;;
22849;SDS011;11591;44.792;10.358;2023-06-10T13:58:56;8.32;;;4.47;;
22849;SDS011;11591;44.792;10.358;2023-06-10T14:01:22;10.18;;;3.85;;
22849;SDS011;11591;44.792;10.358;2023-06-10T14:03:47;9.93;;;4.18;;
22849;SDS011;11591;44.792;10.358;2023-06-10T14:06:13;8.52;;;4.07;;
22849;SDS011;11591;44.792;10.358;2023-06-10T14:08:43;7.15;;;3.70;;
22849;SDS011;11591;44.792;10.358;2023-06-10T14:11:09;8.60;;;3.50;;
22849;SDS011;11591;44.792;10.358;2023-06-10T14:13:36;7.05;;;3.42;;
22849;SDS011;11591;44.792;10.358;2023-06-10T14:16:04;5.40;;;3.25;;
22849;SDS011;11591;44.792;10.358;2023-06-10T14:18:30;6.32;;;3.40;;
22849;SDS011;11591;44.792;10.358;2023-06-10T14:20:55;11.45;;;3.47;;
22849;SDS011;11591;44.792;10.358;2023-06-10T14:23:21;11.73;;;3.47;;
22849;SDS011;11591;44.792;10.358;2023-06-10T14:25:48;7.50;;;3.58;;
22849;SDS011;11591;44.792;10.358;2023-06-10T14:28:14;6.55;;;3.10;;
22849;SDS011;11591;44.792;10.358;2023-06-10T14:30:40;7.70;;;3.50;;
22849;SDS011;11591;44.792;10.358;2023-06-10T14:33:06;10.45;;;3.85;;
22849;SDS011;11591;44.792;10.358;2023-06-10T14:35:31;7.70;;;3.55;;
22849;SDS011;11591;44.792;10.358;2023-06-10T14:37:57;6.50;;;3.33;;
22849;SDS011;11591;44.792;10.358;2023-06-10T14:40:23;7.95;;;3.42;;
22849;SDS011;11591;44.792;10.358;2023-06-10T14:42:51;5.75;;;3.35;;
22849;SDS011;11591;44.792;10.358;2023-06-10T14:45:16;10.27;;;3.00;;
22849;SDS011;11591;44.792;10.358;2023-06-10T14:47:42;7.38;;;3.30;;
22849;SDS011;11591;44.792;10.358;2023-06-10T14:50:08;10.55;;;4.03;;
22849;SDS011;11591;44.792;10.358;2023-06-10T14:52:34;9.70;;;3.10;;
22849;SDS011;11591;44.792;10.358;2023-06-10T14:55:00;7.82;;;3.40;;
22849;SDS011;11591;44.792;10.358;2023-06-10T14:57:26;8.00;;;2.78;;
22849;SDS011;11591;44.792;10.358;2023-06-10T14:59:51;8.45;;;2.95;;
22849;SDS011;11591;44.792;10.358;2023-06-10T15:02:17;6.00;;;2.75;;
22849;SDS011;11591;44.792;10.358;2023-06-10T15:04:43;10.98;;;3.40;;
22849;SDS011;11591;44.792;10.358;2023-06-10T15:07:08;7.57;;;2.60;;
22849;SDS011;11591;44.792;10.358;2023-06-10T15:09:34;8.25;;;2.80;;
22849;SDS011;11591;44.792;10.358;2023-06-10T15:12:00;4.18;;;2.22;;
22849;SDS011;11591;44.792;10.358;2023-06-10T15:14:26;7.63;;;2.47;;
22849;SDS011;11591;44.792;10.358;2023-06-10T15:16:52;6.53;;;2.45;;
22849;SDS011;11591;44.792;10.358;2023-06-10T15:19:17;4.43;;;2.25;;
22849;SDS011;11591;44.792;10.358;2023-06-10T15:21:43;5.10;;;2.50;;
22849;SDS011;11591;44.792;10.358;2023-06-10T15:24:09;3.75;;;2.30;;
22849;SDS011;11591;44.792;10.358;2023-06-10T15:26:35;6.22;;;2.22;;
22849;SDS011;11591;44.792;10.358;2023-06-10T15:29:01;9.20;;;2.20;;
22849;SDS011;11591;44.792;10.358;2023-06-10T15:31:30;4.50;;;2.33;;
22849;SDS011;11591;44.792;10.358;2023-06-10T15:33:57;7.63;;;2.60;;
22849;SDS011;11591;44.792;10.358;2023-06-10T15:36:24;4.47;;;2.67;;
22849;SDS011;11591;44.792;10.358;2023-06-10T15:38:50;6.35;;;2.92;;
22849;SDS011;11591;44.792;10.358;2023-06-10T15:41:16;4.22;;;2.80;;
22849;SDS011;11591;44.792;10.358;2023-06-10T15:43:42;4.80;;;2.85;;
22849;SDS011;11591;44.792;10.358;2023-06-10T15:46:08;5.50;;;3.10;;
22849;SDS011;11591;44.792;10.358;2023-06-10T15:48:33;6.85;;;3.58;;
22849;SDS011;11591;44.792;10.358;2023-06-10T15:50:59;11.18;;;3.28;;
22849;SDS011;11591;44.792;10.358;2023-06-10T15:53:25;8.45;;;3.10;;
22849;SDS011;11591;44.792;10.358;2023-06-10T15:55:51;6.05;;;3.63;;
22849;SDS011;11591;44.792;10.358;2023-06-10T15:58:17;5.95;;;3.78;;
22849;SDS011;11591;44.792;10.358;2023-06-10T16:00:43;8.68;;;4.43;;
22849;SDS011;11591;44.792;10.358;2023-06-10T16:03:08;5.30;;;3.47;;
22849;SDS011;11591;44.792;10.358;2023-06-10T16:05:34;8.40;;;3.75;;
22849;SDS011;11591;44.792;10.358;2023-06-10T16:08:00;6.30;;;3.65;;
22849;SDS011;11591;44.792;10.358;2023-06-10T16:10:26;4.40;;;3.35;;
22849;SDS011;11591;44.792;10.358;2023-06-10T16:12:52;7.80;;;3.58;;
22849;SDS011;11591;44.792;10.358;2023-06-10T16:15:17;5.82;;;3.70;;
22849;SDS011;11591;44.792;10.358;2023-06-10T16:17:43;7.95;;;3.70;;
22849;SDS011;11591;44.792;10.358;2023-06-10T16:20:09;6.00;;;3.40;;
22849;SDS011;11591;44.792;10.358;2023-06-10T16:22:35;8.25;;;3.17;;
22849;SDS011;11591;44.792;10.358;2023-06-10T16:25:01;5.72;;;3.20;;
22849;SDS011;11591;44.792;10.358;2023-06-10T16:27:27;3.50;;;2.92;;
22849;SDS011;11591;44.792;10.358;2023-06-10T16:29:53;4.72;;;3.55;;
22849;SDS011;11591;44.792;10.358;2023-06-10T16:32:18;6.88;;;2.97;;
22849;SDS011;11591;44.792;10.358;2023-06-10T16:34:44;7.53;;;3.42;;
22849;SDS011;11591;44.792;10.358;2023-06-10T16:37:10;6.28;;;3.97;;
22849;SDS011;11591;44.792;10.358;2023-06-10T16:39:36;7.97;;;4.30;;
22849;SDS011;11591;44.792;10.358;2023-06-10T16:42:02;6.10;;;3.67;;
22849;SDS011;11591;44.792;10.358;2023-06-10T16:44:28;10.63;;;3.80;;
22849;SDS011;11591;44.792;10.358;2023-06-10T16:46:53;5.78;;;3.90;;
22849;SDS011;11591;44.792;10.358;2023-06-10T16:49:19;7.28;;;4.10;;
22849;SDS011;11591;44.792;10.358;2023-06-10T16:51:45;9.30;;;4.18;;
22849;SDS011;11591;44.792;10.358;2023-06-10T16:54:11;8.68;;;4.35;;
22849;SDS011;11591;44.792;10.358;2023-06-10T16:56:36;6.43;;;4.32;;
22849;SDS011;11591;44.792;10.358;2023-06-10T16:59:02;5.72;;;4.30;;
22849;SDS011;11591;44.792;10.358;2023-06-10T17:01:28;5.80;;;4.07;;
22849;SDS011;11591;44.792;10.358;2023-06-10T17:03:54;8.10;;;4.10;;
22849;SDS011;11591;44.792;10.358;2023-06-10T17:06:19;6.68;;;4.07;;
22849;SDS011;11591;44.792;10.358;2023-06-10T17:08:45;6.93;;;3.92;;
22849;SDS011;11591;44.792;10.358;2023-06-10T17:11:11;7.30;;;4.20;;
22849;SDS011;11591;44.792;10.358;2023-06-10T17:13:37;5.75;;;3.53;;
22849;SDS011;11591;44.792;10.358;2023-06-10T17:16:02;7.15;;;3.80;;
22849;SDS011;11591;44.792;10.358;2023-06-10T17:18:28;6.43;;;4.10;;
22849;SDS011;11591;44.792;10.358;2023-06-10T17:20:54;6.55;;;4.00;;
22849;SDS011;11591;44.792;10.358;2023-06-10T17:23:20;10.02;;;4.43;;
22849;SDS011;11591;44.792;10.358;2023-06-10T17:25:46;6.30;;;3.60;;
22849;SDS011;11591;44.792;10.358;2023-06-10T17:28:12;6.38;;;3.38;;
22849;SDS011;11591;44.792;10.358;2023-06-10T17:30:38;7.97;;;3.85;;
22849;SDS011;11591;44.792;10.358;2023-06-10T17:33:04;5.03;;;3.42;;
22849;SDS011;11591;44.792;10.358;2023-06-10T17:35:29;7.80;;;3.78;;
22849;SDS011;11591;44.792;10.358;2023-06-10T17:37:55;6.22;;;3.63;;
22849;SDS011;11591;44.792;10.358;2023-06-10T17:40:21;5.15;;;3.40;;
22849;SDS011;11591;44.792;10.358;2023-06-10T17:42:47;3.67;;;3.25;;
22849;SDS011;11591;44.792;10.358;2023-06-10T17:45:12;5.00;;;3.33;;
22849;SDS011;11591;44.792;10.358;2023-06-10T17:47:38;6.07;;;4.20;;
22849;SDS011;11591;44.792;10.358;2023-06-10T17:50:04;3.92;;;3.53;;
22849;SDS011;11591;44.792;10.358;2023-06-10T17:52:30;6.05;;;3.40;;
22849;SDS011;11591;44.792;10.358;2023-06-10T17:54:56;4.88;;;3.60;;
22849;SDS011;11591;44.792;10.358;2023-06-10T17:57:22;7.95;;;4.35;;
22849;SDS011;11591;44.792;10.358;2023-06-10T17:59:47;6.63;;;3.22;;
22849;SDS011;11591;44.792;10.358;2023-06-10T18:02:13;5.55;;;3.65;;
22849;SDS011;11591;44.792;10.358;2023-06-10T18:04:39;6.78;;;3.70;;
22849;SDS011;11591;44.792;10.358;2023-06-10T18:07:05;6.15;;;3.75;;
22849;SDS011;11591;44.792;10.358;2023-06-10T18:09:31;7.57;;;3.85;;
22849;SDS011;11591;44.792;10.358;2023-06-10T18:11:56;5.00;;;3.80;;
22849;SDS011;11591;44.792;10.358;2023-06-10T18:14:22;5.88;;;4.20;;
22849;SDS011;11591;44.792;10.358;2023-06-10T18:16:48;5.25;;;3.85;;
22849;SDS011;11591;44.792;10.358;2023-06-10T18:19:14;6.68;;;4.03;;
22849;SDS011;11591;44.792;10.358;2023-06-10T18:21:40;5.18;;;4.38;;
22849;SDS011;11591;44.792;10.358;2023-06-10T18:24:06;7.00;;;4.78;;
22849;SDS011;11591;44.792;10.358;2023-06-10T18:26:33;5.97;;;4.43;;
22849;SDS011;11591;44.792;10.358;2023-06-10T18:28:59;5.30;;;4.53;;
22849;SDS011;11591;44.792;10.358;2023-06-10T18:31:24;8.02;;;5.07;;
22849;SDS011;11591;44.792;10.358;2023-06-10T18:33:50;7.50;;;4.50;;
22849;SDS011;11591;44.792;10.358;2023-06-10T18:36:16;8.68;;;4.90;;
22849;SDS011;11591;44.792;10.358;2023-06-10T18:38:43;8.07;;;5.03;;
22849;SDS011;11591;44.792;10.358;2023-06-10T18:41:10;7.85;;;5.90;;
22849;SDS011;11591;44.792;10.358;2023-06-10T18:43:36;11.50;;;7.82;;
22849;SDS011;11591;44.792;10.358;2023-06-10T18:46:02;11.07;;;7.88;;
22849;SDS011;11591;44.792;10.358;2023-06-10T18:48:28;11.00;;;8.02;;
22849;SDS011;11591;44.792;10.358;2023-06-10T18:50:54;11.35;;;8.27;;
22849;SDS011;11591;44.792;10.358;2023-06-10T18:53:20;15.77;;;8.35;;
22849;SDS011;11591;44.792;10.358;2023-06-10T18:55:45;13.98;;;8.88;;
22849;SDS011;11591;44.792;10.358;2023-06-10T18:58:11;21.02;;;9.25;;
22849;SDS011;11591;44.792;10.358;2023-06-10T19:00:38;14.63;;;9.57;;
22849;SDS011;11591;44.792;10.358;2023-06-10T19:03:03;13.25;;;9.00;;
22849;SDS011;11591;44.792;10.358;2023-06-10T19:05:29;15.15;;;10.00;;
22849;SDS011;11591;44.792;10.358;2023-06-10T19:07:55;17.77;;;11.90;;
22849;SDS011;11591;44.792;10.358;2023-06-10T19:10:21;13.82;;;8.90;;
22849;SDS011;11591;44.792;10.358;2023-06-10T19:12:46;14.65;;;9.20;;
22849;SDS011;11591;44.792;10.358;2023-06-10T19:15:13;17.73;;;8.98;;
22849;SDS011;11591;44.792;10.358;2023-06-10T19:17:39;17.75;;;12.48;;
22849;SDS011;11591;44.792;10.358;2023-06-10T19:20:06;15.95;;;9.90;;
22849;SDS011;11591;44.792;10.358;2023-06-10T19:22:33;15.90;;;9.88;;
22849;SDS011;11591;44.792;10.358;2023-06-10T19:24:59;18.05;;;10.25;;
22849;SDS011;11591;44.792;10.358;2023-06-10T19:27:29;13.75;;;9.70;;